sensor_id;sensor_type;location;lat;lon;timestamp;P1;durP1;ratioP1;P2;durP2;ratioP2
6121;SDS011;3091;51.506;7.672;2023-02-01T00:00:10;18.50;;;17.50;;
6121;SDS011;3091;51.506;7.672;2023-02-01T00:02:37;16.53;;;15.70;;
6121;SDS011;3091;51.506;7.672;2023-02-01T00:05:06;18.63;;;17.63;;
6121;SDS011;3091;51.506;7.672;2023-02-01T00:07:32;17.90;;;16.90;;
6121;SDS011;3091;51.506;7.672;2023-02-01T00:09:58;18.03;;;17.00;;
6121;SDS011;3091;51.506;7.672;2023-02-01T00:12:24;19.97;;;18.07;;
6121;SDS011;3091;51.506;7.672;2023-02-01T00:14:50;15.73;;;14.93;;
6121;SDS011;3091;51.506;7.672;2023-02-01T00:17:16;17.50;;;16.50;;
6121;SDS011;3091;51.506;7.672;2023-02-01T00:19:42;16.43;;;15.83;;
6121;SDS011;3091;51.506;7.672;2023-02-01T00:22:08;16.13;;;15.43;;
6121;SDS011;3091;51.506;7.672;2023-02-01T00:24:34;15.87;;;15.17;;
6121;SDS011;3091;51.506;7.672;2023-02-01T00:27:00;18.53;;;17.40;;
6121;SDS011;3091;51.506;7.672;2023-02-01T00:29:26;18.03;;;17.13;;
6121;SDS011;3091;51.506;7.672;2023-02-01T00:31:52;15.80;;;15.10;;
6121;SDS011;3091;51.506;7.672;2023-02-01T00:34:18;20.50;;;16.47;;
6121;SDS011;3091;51.506;7.672;2023-02-01T00:36:45;17.23;;;16.40;;
6121;SDS011;3091;51.506;7.672;2023-02-01T00:39:11;18.97;;;17.83;;
6121;SDS011;3091;51.506;7.672;2023-02-01T00:41:37;15.07;;;14.47;;
6121;SDS011;3091;51.506;7.672;2023-02-01T00:44:03;16.43;;;15.73;;
6121;SDS011;3091;51.506;7.672;2023-02-01T00:46:30;18.30;;;17.50;;
6121;SDS011;3091;51.506;7.672;2023-02-01T00:48:56;17.57;;;16.40;;
6121;SDS011;3091;51.506;7.672;2023-02-01T00:51:23;17.37;;;16.20;;
6121;SDS011;3091;51.506;7.672;2023-02-01T00:53:49;17.67;;;16.60;;
6121;SDS011;3091;51.506;7.672;2023-02-01T00:56:15;15.90;;;15.20;;
6121;SDS011;3091;51.506;7.672;2023-02-01T00:58:42;16.00;;;15.20;;
6121;SDS011;3091;51.506;7.672;2023-02-01T01:03:35;16.10;;;15.40;;
6121;SDS011;3091;51.506;7.672;2023-02-01T01:06:03;16.87;;;16.07;;
6121;SDS011;3091;51.506;7.672;2023-02-01T01:08:29;15.43;;;14.30;;
6121;SDS011;3091;51.506;7.672;2023-02-01T01:10:55;14.30;;;13.70;;
6121;SDS011;3091;51.506;7.672;2023-02-01T01:13:21;12.87;;;12.47;;
6121;SDS011;3091;51.506;7.672;2023-02-01T01:15:48;15.87;;;14.57;;
6121;SDS011;3091;51.506;7.672;2023-02-01T01:18:14;14.53;;;13.83;;
6121;SDS011;3091;51.506;7.672;2023-02-01T01:20:40;12.97;;;12.47;;
6121;SDS011;3091;51.506;7.672;2023-02-01T01:23:07;12.33;;;11.93;;
6121;SDS011;3091;51.506;7.672;2023-02-01T01:25:36;13.10;;;12.70;;
6121;SDS011;3091;51.506;7.672;2023-02-01T01:28:10;15.17;;;13.93;;
6121;SDS011;3091;51.506;7.672;2023-02-01T01:30:36;12.50;;;12.10;;
6121;SDS011;3091;51.506;7.672;2023-02-01T01:33:02;13.57;;;11.77;;
6121;SDS011;3091;51.506;7.672;2023-02-01T01:35:29;19.43;;;12.90;;
6121;SDS011;3091;51.506;7.672;2023-02-01T01:37:57;13.57;;;12.33;;
6121;SDS011;3091;51.506;7.672;2023-02-01T01:40:23;12.57;;;11.80;;
6121;SDS011;3091;51.506;7.672;2023-02-01T01:42:49;11.20;;;10.80;;
6121;SDS011;3091;51.506;7.672;2023-02-01T01:47:48;12.03;;;11.63;;
6121;SDS011;3091;51.506;7.672;2023-02-01T01:50:15;14.40;;;13.50;;
6121;SDS011;3091;51.506;7.672;2023-02-01T01:52:42;14.30;;;13.70;;
6121;SDS011;3091;51.506;7.672;2023-02-01T01:55:08;13.17;;;12.73;;
6121;SDS011;3091;51.506;7.672;2023-02-01T01:57:36;14.60;;;14.10;;
6121;SDS011;3091;51.506;7.672;2023-02-01T02:00:05;14.37;;;13.70;;
6121;SDS011;3091;51.506;7.672;2023-02-01T02:02:32;13.47;;;12.97;;
6121;SDS011;3091;51.506;7.672;2023-02-01T02:04:59;14.63;;;14.03;;
6121;SDS011;3091;51.506;7.672;2023-02-01T02:07:26;14.10;;;13.13;;
6121;SDS011;3091;51.506;7.672;2023-02-01T02:09:54;13.23;;;12.73;;
6121;SDS011;3091;51.506;7.672;2023-02-01T02:12:20;13.43;;;12.83;;
6121;SDS011;3091;51.506;7.672;2023-02-01T02:14:46;18.23;;;13.13;;
6121;SDS011;3091;51.506;7.672;2023-02-01T02:30:34;15.50;;;14.80;;
6121;SDS011;3091;51.506;7.672;2023-02-01T02:38:12;16.10;;;15.50;;
6121;SDS011;3091;51.506;7.672;2023-02-01T02:40:49;15.50;;;14.90;;
6121;SDS011;3091;51.506;7.672;2023-02-01T02:43:35;15.70;;;15.00;;
6121;SDS011;3091;51.506;7.672;2023-02-01T02:46:36;16.80;;;16.10;;
6121;SDS011;3091;51.506;7.672;2023-02-01T02:55:08;15.30;;;14.50;;
6121;SDS011;3091;51.506;7.672;2023-02-01T02:57:39;15.73;;;15.03;;
6121;SDS011;3091;51.506;7.672;2023-02-01T03:00:27;15.50;;;14.90;;
6121;SDS011;3091;51.506;7.672;2023-02-01T03:03:12;16.50;;;15.77;;
6121;SDS011;3091;51.506;7.672;2023-02-01T03:05:56;16.20;;;15.40;;
6121;SDS011;3091;51.506;7.672;2023-02-01T03:08:25;16.53;;;15.63;;
6121;SDS011;3091;51.506;7.672;2023-02-01T03:11:00;15.60;;;14.90;;
6121;SDS011;3091;51.506;7.672;2023-02-01T03:13:39;14.63;;;14.03;;
6121;SDS011;3091;51.506;7.672;2023-02-01T03:18:42;16.63;;;15.30;;
6121;SDS011;3091;51.506;7.672;2023-02-01T03:21:10;14.53;;;14.03;;
6121;SDS011;3091;51.506;7.672;2023-02-01T03:23:37;15.83;;;14.83;;
6121;SDS011;3091;51.506;7.672;2023-02-01T03:26:03;16.63;;;15.60;;
6121;SDS011;3091;51.506;7.672;2023-02-01T03:28:32;15.03;;;14.43;;
6121;SDS011;3091;51.506;7.672;2023-02-01T03:30:58;17.97;;;17.00;;
6121;SDS011;3091;51.506;7.672;2023-02-01T03:33:25;13.60;;;13.20;;
6121;SDS011;3091;51.506;7.672;2023-02-01T03:38:34;13.93;;;13.33;;
6121;SDS011;3091;51.506;7.672;2023-02-01T03:44:01;14.00;;;13.40;;
6121;SDS011;3091;51.506;7.672;2023-02-01T03:46:26;15.07;;;14.10;;
6121;SDS011;3091;51.506;7.672;2023-02-01T03:48:57;13.97;;;13.50;;
6121;SDS011;3091;51.506;7.672;2023-02-01T03:51:24;12.50;;;12.03;;
6121;SDS011;3091;51.506;7.672;2023-02-01T03:53:50;14.10;;;13.10;;
6121;SDS011;3091;51.506;7.672;2023-02-01T03:56:20;13.83;;;12.80;;
6121;SDS011;3091;51.506;7.672;2023-02-01T03:58:49;13.90;;;13.40;;
6121;SDS011;3091;51.506;7.672;2023-02-01T04:01:26;13.27;;;12.87;;
6121;SDS011;3091;51.506;7.672;2023-02-01T04:03:52;14.77;;;13.50;;
6121;SDS011;3091;51.506;7.672;2023-02-01T04:06:18;14.43;;;13.43;;
6121;SDS011;3091;51.506;7.672;2023-02-01T04:08:44;14.03;;;13.33;;
6121;SDS011;3091;51.506;7.672;2023-02-01T04:11:10;15.43;;;14.80;;
6121;SDS011;3091;51.506;7.672;2023-02-01T04:13:36;13.80;;;13.10;;
6121;SDS011;3091;51.506;7.672;2023-02-01T04:16:05;15.67;;;14.10;;
6121;SDS011;3091;51.506;7.672;2023-02-01T04:18:31;14.20;;;13.70;;
6121;SDS011;3091;51.506;7.672;2023-02-01T04:20:57;14.23;;;13.60;;
6121;SDS011;3091;51.506;7.672;2023-02-01T04:23:23;13.97;;;13.33;;
6121;SDS011;3091;51.506;7.672;2023-02-01T04:25:49;13.53;;;12.93;;
6121;SDS011;3091;51.506;7.672;2023-02-01T04:28:15;12.10;;;11.60;;
6121;SDS011;3091;51.506;7.672;2023-02-01T04:30:41;17.67;;;13.20;;
6121;SDS011;3091;51.506;7.672;2023-02-01T04:33:07;12.90;;;12.50;;
6121;SDS011;3091;51.506;7.672;2023-02-01T04:35:33;14.00;;;13.50;;
6121;SDS011;3091;51.506;7.672;2023-02-01T04:37:59;13.63;;;13.13;;
6121;SDS011;3091;51.506;7.672;2023-02-01T04:40:26;14.30;;;13.17;;
6121;SDS011;3091;51.506;7.672;2023-02-01T04:42:52;11.67;;;11.30;;
6121;SDS011;3091;51.506;7.672;2023-02-01T04:45:18;11.90;;;11.50;;
6121;SDS011;3091;51.506;7.672;2023-02-01T04:47:44;12.60;;;11.80;;
6121;SDS011;3091;51.506;7.672;2023-02-01T04:50:10;15.87;;;14.70;;
6121;SDS011;3091;51.506;7.672;2023-02-01T04:52:36;14.60;;;13.90;;
6121;SDS011;3091;51.506;7.672;2023-02-01T04:55:03;14.20;;;13.50;;
6121;SDS011;3091;51.506;7.672;2023-02-01T04:57:29;14.43;;;13.73;;
6121;SDS011;3091;51.506;7.672;2023-02-01T04:59:55;13.07;;;12.67;;
6121;SDS011;3091;51.506;7.672;2023-02-01T05:02:21;14.07;;;13.20;;
6121;SDS011;3091;51.506;7.672;2023-02-01T05:04:47;14.80;;;14.10;;
6121;SDS011;3091;51.506;7.672;2023-02-01T05:07:13;16.07;;;15.00;;
6121;SDS011;3091;51.506;7.672;2023-02-01T05:09:39;14.73;;;14.03;;
6121;SDS011;3091;51.506;7.672;2023-02-01T05:12:05;15.50;;;14.83;;
6121;SDS011;3091;51.506;7.672;2023-02-01T05:14:50;15.43;;;14.33;;
6121;SDS011;3091;51.506;7.672;2023-02-01T05:17:16;13.10;;;12.60;;
6121;SDS011;3091;51.506;7.672;2023-02-01T05:19:42;15.00;;;14.10;;
6121;SDS011;3091;51.506;7.672;2023-02-01T05:22:08;14.30;;;13.77;;
6121;SDS011;3091;51.506;7.672;2023-02-01T05:24:35;14.03;;;13.53;;
6121;SDS011;3091;51.506;7.672;2023-02-01T05:27:01;16.63;;;15.83;;
6121;SDS011;3091;51.506;7.672;2023-02-01T05:29:27;17.77;;;16.33;;
6121;SDS011;3091;51.506;7.672;2023-02-01T05:31:53;15.00;;;14.20;;
6121;SDS011;3091;51.506;7.672;2023-02-01T05:34:19;14.90;;;14.20;;
6121;SDS011;3091;51.506;7.672;2023-02-01T05:36:45;16.47;;;15.67;;
6121;SDS011;3091;51.506;7.672;2023-02-01T05:39:11;15.97;;;14.90;;
6121;SDS011;3091;51.506;7.672;2023-02-01T05:41:37;14.50;;;13.90;;
6121;SDS011;3091;51.506;7.672;2023-02-01T05:44:03;17.10;;;15.63;;
6121;SDS011;3091;51.506;7.672;2023-02-01T05:46:32;17.17;;;16.10;;
6121;SDS011;3091;51.506;7.672;2023-02-01T05:48:58;14.90;;;14.40;;
6121;SDS011;3091;51.506;7.672;2023-02-01T05:51:24;16.80;;;15.60;;
6121;SDS011;3091;51.506;7.672;2023-02-01T05:53:50;15.33;;;14.67;;
6121;SDS011;3091;51.506;7.672;2023-02-01T05:56:16;14.67;;;14.17;;
6121;SDS011;3091;51.506;7.672;2023-02-01T05:58:42;15.33;;;14.73;;
6121;SDS011;3091;51.506;7.672;2023-02-01T06:01:08;14.83;;;14.33;;
6121;SDS011;3091;51.506;7.672;2023-02-01T06:03:34;16.63;;;15.27;;
6121;SDS011;3091;51.506;7.672;2023-02-01T06:06:00;15.60;;;14.90;;
6121;SDS011;3091;51.506;7.672;2023-02-01T06:08:26;16.27;;;15.30;;
6121;SDS011;3091;51.506;7.672;2023-02-01T06:13:45;16.53;;;15.30;;
6121;SDS011;3091;51.506;7.672;2023-02-01T06:16:11;15.83;;;14.73;;
6121;SDS011;3091;51.506;7.672;2023-02-01T06:18:41;15.97;;;15.37;;
6121;SDS011;3091;51.506;7.672;2023-02-01T06:21:08;16.37;;;15.27;;
6121;SDS011;3091;51.506;7.672;2023-02-01T06:23:34;15.90;;;15.20;;
6121;SDS011;3091;51.506;7.672;2023-02-01T06:26:04;16.40;;;15.00;;
6121;SDS011;3091;51.506;7.672;2023-02-01T06:28:31;16.37;;;15.57;;
6121;SDS011;3091;51.506;7.672;2023-02-01T06:30:57;14.80;;;14.20;;
6121;SDS011;3091;51.506;7.672;2023-02-01T06:33:24;15.10;;;14.60;;
6121;SDS011;3091;51.506;7.672;2023-02-01T06:35:57;16.17;;;15.13;;
6121;SDS011;3091;51.506;7.672;2023-02-01T06:38:23;15.37;;;14.77;;
6121;SDS011;3091;51.506;7.672;2023-02-01T06:40:53;14.77;;;14.27;;
6121;SDS011;3091;51.506;7.672;2023-02-01T06:43:20;15.93;;;15.30;;
6121;SDS011;3091;51.506;7.672;2023-02-01T06:45:46;14.77;;;14.27;;
6121;SDS011;3091;51.506;7.672;2023-02-01T06:48:14;15.80;;;15.00;;
6121;SDS011;3091;51.506;7.672;2023-02-01T06:50:40;15.20;;;14.60;;
6121;SDS011;3091;51.506;7.672;2023-02-01T06:53:09;15.30;;;14.70;;
6121;SDS011;3091;51.506;7.672;2023-02-01T06:55:35;17.27;;;16.10;;
6121;SDS011;3091;51.506;7.672;2023-02-01T06:58:01;15.57;;;14.80;;
6121;SDS011;3091;51.506;7.672;2023-02-01T07:00:29;15.97;;;15.17;;
6121;SDS011;3091;51.506;7.672;2023-02-01T07:02:56;16.70;;;15.93;;
6121;SDS011;3091;51.506;7.672;2023-02-01T07:05:23;16.03;;;15.03;;
6121;SDS011;3091;51.506;7.672;2023-02-01T07:07:49;17.50;;;15.83;;
6121;SDS011;3091;51.506;7.672;2023-02-01T07:10:16;15.00;;;14.40;;
6121;SDS011;3091;51.506;7.672;2023-02-01T07:12:42;21.43;;;19.97;;
6121;SDS011;3091;51.506;7.672;2023-02-01T07:15:08;14.90;;;14.40;;
6121;SDS011;3091;51.506;7.672;2023-02-01T07:17:34;15.97;;;15.33;;
6121;SDS011;3091;51.506;7.672;2023-02-01T07:20:00;16.30;;;15.40;;
6121;SDS011;3091;51.506;7.672;2023-02-01T07:22:26;15.70;;;15.00;;
6121;SDS011;3091;51.506;7.672;2023-02-01T07:24:53;17.27;;;16.13;;
6121;SDS011;3091;51.506;7.672;2023-02-01T07:27:19;16.40;;;15.40;;
6121;SDS011;3091;51.506;7.672;2023-02-01T07:29:45;16.33;;;15.53;;
6121;SDS011;3091;51.506;7.672;2023-02-01T07:32:11;15.87;;;15.17;;
6121;SDS011;3091;51.506;7.672;2023-02-01T07:34:37;14.60;;;14.00;;
6121;SDS011;3091;51.506;7.672;2023-02-01T07:37:03;14.53;;;14.03;;
6121;SDS011;3091;51.506;7.672;2023-02-01T07:39:31;15.13;;;14.43;;
6121;SDS011;3091;51.506;7.672;2023-02-01T07:41:57;14.40;;;13.90;;
6121;SDS011;3091;51.506;7.672;2023-02-01T07:44:23;15.30;;;14.60;;
6121;SDS011;3091;51.506;7.672;2023-02-01T07:46:49;14.53;;;14.00;;
6121;SDS011;3091;51.506;7.672;2023-02-01T07:49:15;15.57;;;14.90;;
6121;SDS011;3091;51.506;7.672;2023-02-01T07:51:42;14.27;;;13.77;;
6121;SDS011;3091;51.506;7.672;2023-02-01T07:54:08;14.77;;;14.13;;
6121;SDS011;3091;51.506;7.672;2023-02-01T07:56:34;14.73;;;13.87;;
6121;SDS011;3091;51.506;7.672;2023-02-01T07:59:00;14.97;;;14.37;;
6121;SDS011;3091;51.506;7.672;2023-02-01T08:01:27;15.07;;;14.37;;
6121;SDS011;3091;51.506;7.672;2023-02-01T08:06:20;17.53;;;16.17;;
6121;SDS011;3091;51.506;7.672;2023-02-01T08:08:46;16.10;;;15.03;;
6121;SDS011;3091;51.506;7.672;2023-02-01T08:11:15;15.73;;;15.10;;
6121;SDS011;3091;51.506;7.672;2023-02-01T08:13:41;15.53;;;14.83;;
6121;SDS011;3091;51.506;7.672;2023-02-01T08:16:08;16.10;;;15.10;;
6121;SDS011;3091;51.506;7.672;2023-02-01T08:18:35;15.50;;;14.80;;
6121;SDS011;3091;51.506;7.672;2023-02-01T08:21:08;17.83;;;16.63;;
6121;SDS011;3091;51.506;7.672;2023-02-01T08:23:34;17.93;;;16.37;;
6121;SDS011;3091;51.506;7.672;2023-02-01T08:26:20;17.30;;;15.93;;
6121;SDS011;3091;51.506;7.672;2023-02-01T08:28:47;16.00;;;15.33;;
6121;SDS011;3091;51.506;7.672;2023-02-01T08:31:17;13.60;;;13.10;;
6121;SDS011;3091;51.506;7.672;2023-02-01T08:33:51;13.50;;;13.10;;
6121;SDS011;3091;51.506;7.672;2023-02-01T08:36:18;16.90;;;15.80;;
6121;SDS011;3091;51.506;7.672;2023-02-01T08:38:44;15.30;;;14.63;;
6121;SDS011;3091;51.506;7.672;2023-02-01T08:41:11;14.63;;;13.10;;
6121;SDS011;3091;51.506;7.672;2023-02-01T08:43:38;14.87;;;14.17;;
6121;SDS011;3091;51.506;7.672;2023-02-01T08:46:04;13.53;;;12.97;;
6121;SDS011;3091;51.506;7.672;2023-02-01T08:48:30;14.30;;;13.77;;
6121;SDS011;3091;51.506;7.672;2023-02-01T08:50:57;17.60;;;16.70;;
6121;SDS011;3091;51.506;7.672;2023-02-01T08:53:23;16.90;;;15.90;;
6121;SDS011;3091;51.506;7.672;2023-02-01T08:55:49;14.67;;;14.17;;
6121;SDS011;3091;51.506;7.672;2023-02-01T08:58:15;14.53;;;13.93;;
6121;SDS011;3091;51.506;7.672;2023-02-01T09:00:42;14.90;;;14.17;;
6121;SDS011;3091;51.506;7.672;2023-02-01T09:03:09;15.00;;;14.50;;
6121;SDS011;3091;51.506;7.672;2023-02-01T09:05:36;16.10;;;14.83;;
6121;SDS011;3091;51.506;7.672;2023-02-01T09:08:02;15.53;;;14.93;;
6121;SDS011;3091;51.506;7.672;2023-02-01T09:10:28;15.00;;;14.00;;
6121;SDS011;3091;51.506;7.672;2023-02-01T09:12:57;14.33;;;13.83;;
6121;SDS011;3091;51.506;7.672;2023-02-01T09:15:24;14.73;;;14.13;;
6121;SDS011;3091;51.506;7.672;2023-02-01T09:17:50;16.73;;;16.10;;
6121;SDS011;3091;51.506;7.672;2023-02-01T09:20:16;16.13;;;15.40;;
6121;SDS011;3091;51.506;7.672;2023-02-01T09:22:43;16.00;;;15.30;;
6121;SDS011;3091;51.506;7.672;2023-02-01T09:25:09;15.63;;;14.73;;
6121;SDS011;3091;51.506;7.672;2023-02-01T09:27:36;16.10;;;15.50;;
6121;SDS011;3091;51.506;7.672;2023-02-01T09:30:02;14.53;;;14.03;;
6121;SDS011;3091;51.506;7.672;2023-02-01T09:32:29;16.50;;;15.47;;
6121;SDS011;3091;51.506;7.672;2023-02-01T09:34:55;15.53;;;14.27;;
6121;SDS011;3091;51.506;7.672;2023-02-01T09:37:22;16.03;;;15.13;;
6121;SDS011;3091;51.506;7.672;2023-02-01T09:39:48;15.13;;;14.00;;
6121;SDS011;3091;51.506;7.672;2023-02-01T09:42:41;14.13;;;13.53;;
6121;SDS011;3091;51.506;7.672;2023-02-01T09:47:29;14.43;;;13.83;;
6121;SDS011;3091;51.506;7.672;2023-02-01T09:52:34;15.83;;;14.87;;
6121;SDS011;3091;51.506;7.672;2023-02-01T09:55:04;20.63;;;14.53;;
6121;SDS011;3091;51.506;7.672;2023-02-01T10:00:33;16.67;;;15.83;;
6121;SDS011;3091;51.506;7.672;2023-02-01T10:03:00;15.03;;;14.43;;
6121;SDS011;3091;51.506;7.672;2023-02-01T10:05:38;15.23;;;14.23;;
6121;SDS011;3091;51.506;7.672;2023-02-01T10:08:33;14.90;;;14.20;;
6121;SDS011;3091;51.506;7.672;2023-02-01T10:11:00;17.27;;;15.40;;
6121;SDS011;3091;51.506;7.672;2023-02-01T10:16:31;23.90;;;15.00;;
6121;SDS011;3091;51.506;7.672;2023-02-01T10:27:14;15.30;;;14.50;;
6121;SDS011;3091;51.506;7.672;2023-02-01T10:29:41;17.60;;;15.57;;
6121;SDS011;3091;51.506;7.672;2023-02-01T10:32:10;13.50;;;13.00;;
6121;SDS011;3091;51.506;7.672;2023-02-01T10:34:37;14.53;;;13.83;;
6121;SDS011;3091;51.506;7.672;2023-02-01T10:37:13;13.70;;;13.00;;
6121;SDS011;3091;51.506;7.672;2023-02-01T10:39:45;14.07;;;13.27;;
6121;SDS011;3091;51.506;7.672;2023-02-01T10:42:12;12.70;;;12.30;;
6121;SDS011;3091;51.506;7.672;2023-02-01T10:44:40;17.17;;;16.20;;
6121;SDS011;3091;51.506;7.672;2023-02-01T10:47:09;14.67;;;14.07;;
6121;SDS011;3091;51.506;7.672;2023-02-01T10:52:15;15.00;;;14.40;;
6121;SDS011;3091;51.506;7.672;2023-02-01T10:54:42;14.90;;;14.30;;
6121;SDS011;3091;51.506;7.672;2023-02-01T10:57:22;14.90;;;14.23;;
6121;SDS011;3091;51.506;7.672;2023-02-01T10:59:55;12.80;;;12.30;;
6121;SDS011;3091;51.506;7.672;2023-02-01T11:02:33;12.60;;;12.20;;
6121;SDS011;3091;51.506;7.672;2023-02-01T11:05:02;15.57;;;14.90;;
6121;SDS011;3091;51.506;7.672;2023-02-01T11:07:29;14.00;;;13.40;;
6121;SDS011;3091;51.506;7.672;2023-02-01T11:09:55;14.43;;;13.93;;
6121;SDS011;3091;51.506;7.672;2023-02-01T11:12:24;17.10;;;15.77;;
6121;SDS011;3091;51.506;7.672;2023-02-01T11:14:51;14.67;;;14.03;;
6121;SDS011;3091;51.506;7.672;2023-02-01T11:17:31;13.80;;;13.30;;
6121;SDS011;3091;51.506;7.672;2023-02-01T11:20:05;14.60;;;13.77;;
6121;SDS011;3091;51.506;7.672;2023-02-01T11:22:37;15.00;;;14.30;;
6121;SDS011;3091;51.506;7.672;2023-02-01T11:25:08;20.20;;;14.47;;
6121;SDS011;3091;51.506;7.672;2023-02-01T11:27:35;14.23;;;13.73;;
6121;SDS011;3091;51.506;7.672;2023-02-01T11:30:02;14.60;;;14.00;;
6121;SDS011;3091;51.506;7.672;2023-02-01T11:32:29;16.57;;;15.23;;
6121;SDS011;3091;51.506;7.672;2023-02-01T11:34:57;13.93;;;13.10;;
6121;SDS011;3091;51.506;7.672;2023-02-01T11:37:26;16.03;;;15.20;;
6121;SDS011;3091;51.506;7.672;2023-02-01T11:39:59;14.53;;;13.77;;
6121;SDS011;3091;51.506;7.672;2023-02-01T11:42:26;14.33;;;13.10;;
6121;SDS011;3091;51.506;7.672;2023-02-01T11:47:39;15.00;;;14.20;;
6121;SDS011;3091;51.506;7.672;2023-02-01T11:50:12;13.93;;;13.33;;
6121;SDS011;3091;51.506;7.672;2023-02-01T11:57:51;13.87;;;13.37;;
6121;SDS011;3091;51.506;7.672;2023-02-01T12:03:13;13.40;;;12.80;;
6121;SDS011;3091;51.506;7.672;2023-02-01T12:05:59;13.00;;;12.50;;
6121;SDS011;3091;51.506;7.672;2023-02-01T12:11:13;16.53;;;15.30;;
6121;SDS011;3091;51.506;7.672;2023-02-01T12:19:03;49.67;;;45.20;;
6121;SDS011;3091;51.506;7.672;2023-02-01T12:32:20;94.13;;;88.13;;
6121;SDS011;3091;51.506;7.672;2023-02-01T12:37:27;95.70;;;90.80;;
6121;SDS011;3091;51.506;7.672;2023-02-01T12:42:44;108.47;;;103.37;;
6121;SDS011;3091;51.506;7.672;2023-02-01T12:45:15;109.57;;;103.87;;
6121;SDS011;3091;51.506;7.672;2023-02-01T12:47:55;104.60;;;99.47;;
6121;SDS011;3091;51.506;7.672;2023-02-01T12:52:54;90.37;;;85.60;;
6121;SDS011;3091;51.506;7.672;2023-02-01T12:55:24;79.33;;;74.60;;
6121;SDS011;3091;51.506;7.672;2023-02-01T12:57:55;71.73;;;67.90;;
6121;SDS011;3091;51.506;7.672;2023-02-01T13:00:23;56.23;;;53.00;;
6121;SDS011;3091;51.506;7.672;2023-02-01T13:03:03;53.87;;;50.37;;
6121;SDS011;3091;51.506;7.672;2023-02-01T13:05:37;44.37;;;42.27;;
6121;SDS011;3091;51.506;7.672;2023-02-01T13:08:13;32.97;;;30.63;;
6121;SDS011;3091;51.506;7.672;2023-02-01T13:10:43;28.93;;;27.33;;
6121;SDS011;3091;51.506;7.672;2023-02-01T13:15:40;43.70;;;41.40;;
6121;SDS011;3091;51.506;7.672;2023-02-01T13:18:10;41.80;;;39.17;;
6121;SDS011;3091;51.506;7.672;2023-02-01T13:20:47;59.57;;;56.57;;
6121;SDS011;3091;51.506;7.672;2023-02-01T13:23:19;83.27;;;79.17;;
6121;SDS011;3091;51.506;7.672;2023-02-01T13:25:49;88.30;;;83.63;;
6121;SDS011;3091;51.506;7.672;2023-02-01T13:28:26;93.03;;;88.23;;
6121;SDS011;3091;51.506;7.672;2023-02-01T13:41:32;102.67;;;97.87;;
6121;SDS011;3091;51.506;7.672;2023-02-01T13:44:03;97.93;;;93.30;;
6121;SDS011;3091;51.506;7.672;2023-02-01T13:46:30;95.10;;;90.33;;
6121;SDS011;3091;51.506;7.672;2023-02-01T13:49:04;89.30;;;84.90;;
6121;SDS011;3091;51.506;7.672;2023-02-01T13:51:37;70.47;;;66.97;;
6121;SDS011;3091;51.506;7.672;2023-02-01T13:54:06;48.30;;;46.00;;
6121;SDS011;3091;51.506;7.672;2023-02-01T13:56:42;32.93;;;31.23;;
6121;SDS011;3091;51.506;7.672;2023-02-01T14:01:53;25.97;;;24.57;;
6121;SDS011;3091;51.506;7.672;2023-02-01T14:07:03;22.90;;;21.70;;
6121;SDS011;3091;51.506;7.672;2023-02-01T14:09:34;23.10;;;21.90;;
6121;SDS011;3091;51.506;7.672;2023-02-01T14:14:47;23.50;;;22.00;;
6121;SDS011;3091;51.506;7.672;2023-02-01T14:19:39;21.43;;;20.33;;
6121;SDS011;3091;51.506;7.672;2023-02-01T14:24:52;54.80;;;52.30;;
6121;SDS011;3091;51.506;7.672;2023-02-01T14:27:23;81.33;;;76.70;;
6121;SDS011;3091;51.506;7.672;2023-02-01T14:29:50;92.40;;;87.60;;
6121;SDS011;3091;51.506;7.672;2023-02-01T14:32:23;91.27;;;86.63;;
6121;SDS011;3091;51.506;7.672;2023-02-01T14:34:51;94.03;;;89.07;;
6121;SDS011;3091;51.506;7.672;2023-02-01T14:52:52;63.17;;;59.87;;
6121;SDS011;3091;51.506;7.672;2023-02-01T14:55:25;57.30;;;54.47;;
6121;SDS011;3091;51.506;7.672;2023-02-01T14:57:53;50.37;;;47.97;;
6121;SDS011;3091;51.506;7.672;2023-02-01T15:00:25;41.23;;;38.80;;
6121;SDS011;3091;51.506;7.672;2023-02-01T15:02:52;31.50;;;29.60;;
6121;SDS011;3091;51.506;7.672;2023-02-01T15:05:23;28.77;;;27.17;;
6121;SDS011;3091;51.506;7.672;2023-02-01T15:07:50;25.87;;;24.70;;
6121;SDS011;3091;51.506;7.672;2023-02-01T15:10:17;24.40;;;23.30;;
6121;SDS011;3091;51.506;7.672;2023-02-01T15:12:46;24.47;;;22.73;;
6121;SDS011;3091;51.506;7.672;2023-02-01T15:20:32;23.07;;;21.23;;
6121;SDS011;3091;51.506;7.672;2023-02-01T15:25:28;23.20;;;22.00;;
6121;SDS011;3091;51.506;7.672;2023-02-01T15:27:55;20.80;;;19.90;;
6121;SDS011;3091;51.506;7.672;2023-02-01T15:30:31;20.20;;;18.93;;
6121;SDS011;3091;51.506;7.672;2023-02-01T15:33:31;20.50;;;19.37;;
6121;SDS011;3091;51.506;7.672;2023-02-01T15:38:32;19.20;;;18.30;;
6121;SDS011;3091;51.506;7.672;2023-02-01T15:41:20;35.63;;;33.73;;
6121;SDS011;3091;51.506;7.672;2023-02-01T15:46:15;30.53;;;29.10;;
6121;SDS011;3091;51.506;7.672;2023-02-01T15:48:49;21.10;;;20.10;;
6121;SDS011;3091;51.506;7.672;2023-02-01T15:51:19;20.30;;;19.40;;
6121;SDS011;3091;51.506;7.672;2023-02-01T15:53:47;21.70;;;20.40;;
6121;SDS011;3091;51.506;7.672;2023-02-01T15:56:14;19.50;;;18.50;;
6121;SDS011;3091;51.506;7.672;2023-02-01T15:58:44;19.90;;;19.00;;
6121;SDS011;3091;51.506;7.672;2023-02-01T16:01:11;17.80;;;17.00;;
6121;SDS011;3091;51.506;7.672;2023-02-01T16:03:42;20.20;;;18.73;;
6121;SDS011;3091;51.506;7.672;2023-02-01T16:06:09;18.33;;;17.53;;
6121;SDS011;3091;51.506;7.672;2023-02-01T16:08:36;19.53;;;18.17;;
6121;SDS011;3091;51.506;7.672;2023-02-01T16:13:34;17.33;;;16.43;;
6121;SDS011;3091;51.506;7.672;2023-02-01T16:16:01;16.93;;;15.90;;
6121;SDS011;3091;51.506;7.672;2023-02-01T16:18:28;16.50;;;15.50;;
6121;SDS011;3091;51.506;7.672;2023-02-01T16:20:54;15.50;;;14.80;;
6121;SDS011;3091;51.506;7.672;2023-02-01T16:23:21;15.77;;;15.07;;
6121;SDS011;3091;51.506;7.672;2023-02-01T16:25:47;15.80;;;15.10;;
6121;SDS011;3091;51.506;7.672;2023-02-01T16:28:13;15.60;;;14.53;;
6121;SDS011;3091;51.506;7.672;2023-02-01T16:30:39;14.50;;;14.00;;
6121;SDS011;3091;51.506;7.672;2023-02-01T16:33:05;15.33;;;14.63;;
6121;SDS011;3091;51.506;7.672;2023-02-01T16:35:33;18.77;;;17.87;;
6121;SDS011;3091;51.506;7.672;2023-02-01T16:38:03;28.33;;;26.30;;
6121;SDS011;3091;51.506;7.672;2023-02-01T16:40:33;33.23;;;31.20;;
6121;SDS011;3091;51.506;7.672;2023-02-01T16:43:00;37.07;;;35.27;;
6121;SDS011;3091;51.506;7.672;2023-02-01T16:45:26;43.23;;;40.70;;
6121;SDS011;3091;51.506;7.672;2023-02-01T16:47:54;48.00;;;45.30;;
6121;SDS011;3091;51.506;7.672;2023-02-01T16:50:22;61.27;;;57.23;;
6121;SDS011;3091;51.506;7.672;2023-02-01T16:52:48;64.60;;;60.77;;
6121;SDS011;3091;51.506;7.672;2023-02-01T16:55:15;92.10;;;87.47;;
6121;SDS011;3091;51.506;7.672;2023-02-01T16:57:42;123.07;;;117.47;;
6121;SDS011;3091;51.506;7.672;2023-02-01T17:00:08;125.27;;;119.27;;
6121;SDS011;3091;51.506;7.672;2023-02-01T17:02:35;116.37;;;110.77;;
6121;SDS011;3091;51.506;7.672;2023-02-01T17:05:01;134.00;;;127.70;;
6121;SDS011;3091;51.506;7.672;2023-02-01T17:07:27;125.50;;;119.30;;
6121;SDS011;3091;51.506;7.672;2023-02-01T17:09:53;107.47;;;101.67;;
6121;SDS011;3091;51.506;7.672;2023-02-01T17:12:27;110.20;;;104.60;;
6121;SDS011;3091;51.506;7.672;2023-02-01T17:14:54;103.30;;;98.00;;
6121;SDS011;3091;51.506;7.672;2023-02-01T17:17:21;100.03;;;94.43;;
6121;SDS011;3091;51.506;7.672;2023-02-01T17:19:48;87.83;;;82.73;;
6121;SDS011;3091;51.506;7.672;2023-02-01T17:22:21;72.80;;;68.30;;
6121;SDS011;3091;51.506;7.672;2023-02-01T17:24:49;71.63;;;67.23;;
6121;SDS011;3091;51.506;7.672;2023-02-01T17:27:15;68.30;;;64.10;;
6121;SDS011;3091;51.506;7.672;2023-02-01T17:29:42;69.93;;;65.63;;
6121;SDS011;3091;51.506;7.672;2023-02-01T17:32:13;72.13;;;67.83;;
6121;SDS011;3091;51.506;7.672;2023-02-01T17:34:40;72.50;;;68.20;;